Time;durP1;ratioP1;P1;durP2;ratioP2;P2;SDS_P1;SDS_P2;PMS_P1;PMS_P2;Temp;Humidity;BMP_temperature;BMP_pressure;BME280_temperature;BME280_humidity;BME280_pressure;Samples;Min_cycle;Max_cycle;Signal;HPM_P1;HPM_P2
2023/05/02 00:01:17;;;;;;;2.28;1.80;;;;;;;;;;4979380;28;20173;-61
2023/05/02 00:03:44;;;;;;;8.77;3.25;;;;;;;;;;4980357;28;20054;-59
2023/05/02 00:06:12;;;;;;;6.15;2.53;;;;;;;;;;4978869;28;20403;-60
2023/05/02 00:08:46;;;;;;;4.15;2.22;;;;;;;;;;4981621;28;20516;-47
2023/05/02 00:11:13;;;;;;;2.92;2.38;;;;;;;;;;4979872;28;20125;-55
2023/05/02 00:13:54;;;;;;;5.30;2.47;;;;;;;;;;4977999;28;20052;-48
2023/05/02 00:16:27;;;;;;;5.30;2.88;;;;;;;;;;4979106;28;20085;-54
2023/05/02 00:19:01;;;;;;;7.78;2.53;;;;;;;;;;4977360;28;20614;-61
2023/05/02 00:21:28;;;;;;;7.90;2.90;;;;;;;;;;4978845;28;20396;-46
2023/05/02 00:23:55;;;;;;;9.25;2.97;;;;;;;;;;4979825;28;20093;-67
2023/05/02 00:26:30;;;;;;;6.57;3.40;;;;;;;;;;4979283;28;20054;-67
2023/05/02 00:28:57;;;;;;;4.95;2.90;;;;;;;;;;4979304;28;20042;-67
2023/05/02 00:31:31;;;;;;;7.72;3.08;;;;;;;;;;4978361;28;20532;-67
2023/05/02 00:33:58;;;;;;;4.72;2.92;;;;;;;;;;4979234;28;20202;-68
2023/05/02 00:36:26;;;;;;;5.93;3.58;;;;;;;;;;4983542;28;20430;-66
2023/05/02 00:39:00;;;;;;;5.38;3.22;;;;;;;;;;4984219;28;20060;-45
2023/05/02 00:41:27;;;;;;;5.07;3.00;;;;;;;;;;4983626;28;20593;-47
2023/05/02 00:44:01;;;;;;;3.00;1.95;;;;;;;;;;4980327;28;21051;-48
2023/05/02 00:46:29;;;;;;;4.25;3.05;;;;;;;;;;4983240;28;20109;-45
2023/05/02 00:48:56;;;;;;;3.08;2.15;;;;;;;;;;4982307;28;20051;-61
2023/05/02 00:51:32;;;;;;;4.25;2.80;;;;;;;;;;4983449;28;20421;-60
2023/05/02 00:54:00;;;;;;;6.22;2.40;;;;;;;;;;4978613;28;20056;-61
2023/05/02 00:56:35;;;;;;;6.40;3.60;;;;;;;;;;4979448;28;20414;-61
2023/05/02 00:59:03;;;;;;;6.00;3.38;;;;;;;;;;4980570;28;20100;-61
2023/05/02 01:01:50;;;;;;;6.35;2.97;;;;;;;;;;4981076;28;20054;-61
2023/05/02 01:04:36;;;;;;;6.90;3.33;;;;;;;;;;4982326;28;20100;-62
2023/05/02 01:07:22;;;;;;;5.35;2.90;;;;;;;;;;4976471;28;20049;-61
2023/05/02 01:10:05;;;;;;;7.78;3.78;;;;;;;;;;4985219;28;20054;-61
2023/05/02 01:12:40;;;;;;;5.53;3.25;;;;;;;;;;4983388;28;20054;-61
2023/05/02 01:15:26;;;;;;;5.63;3.30;;;;;;;;;;4980594;28;20057;-62
2023/05/02 01:18:01;;;;;;;9.65;3.60;;;;;;;;;;4980954;28;20046;-61
2023/05/02 01:20:37;;;;;;;7.40;3.45;;;;;;;;;;4980338;28;20055;-62
2023/05/02 01:23:08;;;;;;;7.50;3.40;;;;;;;;;;4981282;28;20078;-61
2023/05/02 01:26:08;;;;;;;9.80;3.63;;;;;;;;;;4981793;28;20054;-62
2023/05/02 01:28:52;;;;;;;8.50;3.50;;;;;;;;;;4980560;28;20054;-61
2023/05/02 01:31:28;;;;;;;9.32;3.50;;;;;;;;;;4983353;28;20085;-61
2023/05/02 01:33:56;;;;;;;9.55;4.25;;;;;;;;;;4983629;28;20050;-61
2023/05/02 01:36:25;;;;;;;105.80;7.13;;;;;;;;;;4981439;28;20056;-61
2023/05/02 01:39:00;;;;;;;21.00;3.65;;;;;;;;;;4980897;28;20581;-61
2023/05/02 01:41:30;;;;;;;7.43;3.25;;;;;;;;;;4980110;28;20583;-61
2023/05/02 01:44:05;;;;;;;8.70;3.67;;;;;;;;;;4979969;28;20521;-64
2023/05/02 01:46:37;;;;;;;6.43;3.55;;;;;;;;;;4980351;28;20574;-60
2023/05/02 01:49:11;;;;;;;5.55;2.83;;;;;;;;;;4981717;28;20042;-64
2023/05/02 01:51:43;;;;;;;6.05;3.30;;;;;;;;;;4979713;28;20105;-64
2023/05/02 01:54:18;;;;;;;8.38;4.00;;;;;;;;;;4983642;28;20052;-65
2023/05/02 01:56:45;;;;;;;11.05;5.15;;;;;;;;;;4980383;28;20631;-65
2023/05/02 01:59:14;;;;;;;10.75;4.43;;;;;;;;;;4980098;28;20042;-65
2023/05/02 02:01:49;;;;;;;8.68;4.07;;;;;;;;;;4980272;28;20069;-65
2023/05/02 02:04:16;;;;;;;14.57;5.28;;;;;;;;;;4980610;28;20051;-61
2023/05/02 02:06:57;;;;;;;11.98;5.30;;;;;;;;;;4980855;28;20510;-61
2023/05/02 02:09:25;;;;;;;13.55;5.30;;;;;;;;;;4975511;28;20054;-60
2023/05/02 02:12:05;;;;;;;21.85;5.18;;;;;;;;;;4981084;28;20141;-60
2023/05/02 02:14:46;;;;;;;9.32;4.40;;;;;;;;;;4977460;28;20043;-61
2023/05/02 02:17:34;;;;;;;11.68;4.88;;;;;;;;;;4978932;28;20053;-61
2023/05/02 02:20:03;;;;;;;15.00;5.70;;;;;;;;;;4980565;28;20058;-60
2023/05/02 02:22:38;;;;;;;15.18;5.45;;;;;;;;;;4980467;28;20057;-61
2023/05/02 02:25:07;;;;;;;14.93;6.20;;;;;;;;;;4979886;28;20620;-60
2023/05/02 02:27:34;;;;;;;14.88;6.05;;;;;;;;;;4980448;28;20050;-60
2023/05/02 02:30:08;;;;;;;20.75;6.30;;;;;;;;;;4981036;28;20149;-60
2023/05/02 02:32:35;;;;;;;16.50;5.97;;;;;;;;;;4978508;28;20138;-45
2023/05/02 02:35:10;;;;;;;12.88;6.32;;;;;;;;;;4980232;28;20046;-45
2023/05/02 02:37:38;;;;;;;17.73;6.55;;;;;;;;;;4978622;28;20055;-46
2023/05/02 02:40:28;;;;;;;20.10;7.15;;;;;;;;;;4981704;28;20080;-46
2023/05/02 02:43:07;;;;;;;18.92;6.53;;;;;;;;;;4979000;28;20057;-58
2023/05/02 02:45:37;;;;;;;24.80;7.47;;;;;;;;;;4978990;28;20127;-61
2023/05/02 02:48:15;;;;;;;17.00;6.47;;;;;;;;;;4976760;28;20043;-61
2023/05/02 02:51:02;;;;;;;21.98;6.97;;;;;;;;;;4979784;28;20058;-61
2023/05/02 02:53:40;;;;;;;22.95;7.43;;;;;;;;;;4957285;28;20050;-61
2023/05/02 02:56:13;;;;;;;21.90;7.93;;;;;;;;;;4982145;28;20061;-61
2023/05/02 02:59:00;;;;;;;18.48;7.28;;;;;;;;;;4978579;28;20058;-61
2023/05/02 03:01:30;;;;;;;15.70;6.43;;;;;;;;;;4977859;28;20157;-56
2023/05/02 03:04:05;;;;;;;16.88;6.43;;;;;;;;;;4981245;28;20042;-61
2023/05/02 03:06:32;;;;;;;20.50;7.03;;;;;;;;;;4980521;28;20510;-61
2023/05/02 03:09:00;;;;;;;20.95;7.80;;;;;;;;;;4979297;28;20054;-61
2023/05/02 03:11:34;;;;;;;13.70;6.10;;;;;;;;;;4980433;28;20056;-61
2023/05/02 03:14:01;;;;;;;12.23;6.20;;;;;;;;;;4980820;28;20220;-61
2023/05/02 03:16:38;;;;;;;22.30;7.30;;;;;;;;;;4978115;28;20077;-61
2023/05/02 03:19:07;;;;;;;18.23;6.88;;;;;;;;;;4978019;28;20046;-58
2023/05/02 03:21:41;;;;;;;17.25;6.63;;;;;;;;;;4980788;28;20437;-58
2023/05/02 03:24:08;;;;;;;;;;;;;;;;;;4982684;28;20149;-57
2023/05/02 03:26:35;;;;;;;14.63;6.07;;;;;;;;;;4977014;28;20750;-53
2023/05/02 03:29:09;;;;;;;20.42;7.10;;;;;;;;;;4981154;28;20042;-53
2023/05/02 03:31:36;;;;;;;21.30;7.18;;;;;;;;;;4977994;28;20054;-61
2023/05/02 03:34:03;;;;;;;17.17;6.75;;;;;;;;;;4980821;28;20140;-61
2023/05/02 03:36:38;;;;;;;21.48;7.47;;;;;;;;;;4978467;28;20050;-60
2023/05/02 03:39:05;;;;;;;18.67;6.72;;;;;;;;;;4980062;28;20701;-59
2023/05/02 03:41:39;;;;;;;17.45;6.85;;;;;;;;;;4975469;28;20474;-61
2023/05/02 03:44:06;;;;;;;15.77;6.95;;;;;;;;;;4975841;28;20043;-61
2023/05/02 03:46:33;;;;;;;18.92;7.00;;;;;;;;;;4979433;28;20092;-61
2023/05/02 03:49:07;;;;;;;23.25;7.43;;;;;;;;;;4977691;28;20077;-59
2023/05/02 03:51:34;;;;;;;26.23;7.80;;;;;;;;;;4976014;28;20521;-61
2023/05/02 03:54:01;;;;;;;44.53;9.60;;;;;;;;;;4978186;28;20146;-61
2023/05/02 03:56:36;;;;;;;45.60;9.40;;;;;;;;;;4976036;28;20050;-50
2023/05/02 03:59:03;;;;;;;26.75;8.50;;;;;;;;;;4978977;28;20049;-64
2023/05/02 04:01:37;;;;;;;72.75;12.27;;;;;;;;;;4975394;28;20046;-61
2023/05/02 04:04:04;;;;;;;33.30;8.77;;;;;;;;;;4975678;28;20471;-61
2023/05/02 04:06:32;;;;;;;28.73;8.60;;;;;;;;;;4970690;28;20054;-61
2023/05/02 04:09:06;;;;;;;17.92;6.50;;;;;;;;;;4968659;28;20498;-60
2023/05/02 04:11:33;;;;;;;32.95;7.05;;;;;;;;;;4975314;28;20086;-61
2023/05/02 04:14:01;;;;;;;16.38;6.68;;;;;;;;;;4976482;28;20046;-61
2023/05/02 04:16:42;;;;;;;17.45;7.15;;;;;;;;;;4978860;28;20127;-65
2023/05/02 04:19:09;;;;;;;23.65;6.85;;;;;;;;;;4979118;28;20050;-61
2023/05/02 04:21:43;;;;;;;25.42;8.05;;;;;;;;;;4976169;28;20057;-61
2023/05/02 04:24:10;;;;;;;21.20;7.38;;;;;;;;;;4977846;28;20046;-61
2023/05/02 04:26:37;;;;;;;17.92;6.85;;;;;;;;;;4971112;28;20097;-61
2023/05/02 04:29:12;;;;;;;20.17;6.82;;;;;;;;;;4972915;28;20043;-61
2023/05/02 04:31:39;;;;;;;14.10;6.65;;;;;;;;;;4978973;28;20054;-61
2023/05/02 04:34:06;;;;;;;17.38;6.97;;;;;;;;;;4978562;28;21709;-46
2023/05/02 04:36:41;;;;;;;16.90;7.07;;;;;;;;;;4978493;28;20059;-61
2023/05/02 04:39:08;;;;;;;16.73;7.55;;;;;;;;;;4975975;28;20421;-60
2023/05/02 04:41:42;;;;;;;12.75;5.82;;;;;;;;;;4966946;28;20061;-59
2023/05/02 04:44:09;;;;;;;14.15;6.13;;;;;;;;;;4968682;28;20191;-59
2023/05/02 04:46:36;;;;;;;13.52;6.90;;;;;;;;;;4966464;28;20461;-61
2023/05/02 04:49:11;;;;;;;15.57;6.22;;;;;;;;;;4968647;28;20053;-60
2023/05/02 04:51:38;;;;;;;;;;;;;;;;;;4986990;28;20046;-49
2023/05/02 04:54:05;;;;;;;13.35;5.53;;;;;;;;;;4985493;28;20345;-64
2023/05/02 04:56:39;;;;;;;9.43;4.70;;;;;;;;;;4986149;28;20443;-49
2023/05/02 04:59:06;;;;;;;8.23;4.78;;;;;;;;;;4987631;28;20057;-52
2023/05/02 05:01:40;;;;;;;12.52;4.88;;;;;;;;;;4994158;28;20054;-52
2023/05/02 05:04:07;;;;;;;12.32;5.18;;;;;;;;;;4998152;28;20050;-54
2023/05/02 05:06:35;;;;;;;9.82;4.88;;;;;;;;;;4998077;28;20140;-51
2023/05/02 05:09:09;;;;;;;9.27;5.47;;;;;;;;;;4998118;28;20050;-47
2023/05/02 05:11:38;;;;;;;8.25;4.75;;;;;;;;;;4998405;28;20049;-61
2023/05/02 05:14:25;;;;;;;10.32;5.28;;;;;;;;;;4999228;28;20495;-61
2023/05/02 05:16:59;;;;;;;10.95;5.07;;;;;;;;;;4996318;28;20041;-56
2023/05/02 05:19:33;;;;;;;7.28;3.97;;;;;;;;;;4999481;28;20145;-58
2023/05/02 05:22:00;;;;;;;7.95;4.57;;;;;;;;;;5002170;28;20136;-61
2023/05/02 05:24:27;;;;;;;9.23;4.53;;;;;;;;;;4999265;28;20682;-61
2023/05/02 05:27:01;;;;;;;11.30;4.72;;;;;;;;;;4995395;28;20053;-61
2023/05/02 05:29:31;;;;;;;8.25;5.03;;;;;;;;;;4999887;28;20046;-61
2023/05/02 05:32:05;;;;;;;9.02;4.57;;;;;;;;;;5000078;28;20057;-61
2023/05/02 05:34:33;;;;;;;12.30;5.07;;;;;;;;;;5003187;28;20097;-61
2023/05/02 05:37:07;;;;;;;7.50;4.47;;;;;;;;;;5002517;28;20049;-61
2023/05/02 05:39:34;;;;;;;8.80;4.75;;;;;;;;;;5000093;28;20053;-59
2023/05/02 05:42:02;;;;;;;6.05;4.13;;;;;;;;;;5002311;28;20049;-58
2023/05/02 05:44:36;;;;;;;6.85;3.72;;;;;;;;;;4998979;28;20050;-59
2023/05/02 05:47:03;;;;;;;6.65;4.13;;;;;;;;;;5000304;28;20130;-59
2023/05/02 05:49:37;;;;;;;6.57;3.53;;;;;;;;;;5001844;28;20057;-49
2023/05/02 05:52:05;;;;;;;;;;;;;;;;;;5000471;28;20042;-59
2023/05/02 05:54:32;;;;;;;10.77;4.05;;;;;;;;;;5000479;28;19928;-58
2023/05/02 05:57:06;;;;;;;6.43;4.45;;;;;;;;;;5000377;28;20143;-58
2023/05/02 05:59:35;;;;;;;5.97;3.92;;;;;;;;;;4998909;28;20054;-58
2023/05/02 06:02:09;;;;;;;5.03;3.55;;;;;;;;;;4998882;28;20142;-58
2023/05/02 06:04:36;;;;;;;10.57;4.55;;;;;;;;;;5001150;28;20049;-59
2023/05/02 06:07:03;;;;;;;7.00;3.42;;;;;;;;;;4997782;28;20463;-59
2023/05/02 06:09:37;;;;;;;9.15;4.45;;;;;;;;;;4999833;28;20577;-49
2023/05/02 06:12:04;;;;;;;12.00;4.05;;;;;;;;;;4997095;28;20057;-52
2023/05/02 06:14:51;;;;;;;7.13;3.55;;;;;;;;;;5001095;28;20050;-55
2023/05/02 06:17:25;;;;;;;6.32;3.53;;;;;;;;;;4999292;28;20137;-53
2023/05/02 06:19:59;;;;;;;7.13;4.10;;;;;;;;;;4984909;28;20493;-54
2023/05/02 06:22:33;;;;;;;4.88;3.30;;;;;;;;;;4996754;28;20510;-58
2023/05/02 06:25:00;;;;;;;5.88;3.17;;;;;;;;;;5000713;28;20056;-50
2023/05/02 06:27:34;;;;;;;7.82;3.97;;;;;;;;;;4998987;28;20533;-50
2023/05/02 06:30:02;;;;;;;5.80;3.58;;;;;;;;;;4998732;28;20133;-52
2023/05/02 06:32:32;;;;;;;5.40;3.08;;;;;;;;;;4999396;28;20104;-49
2023/05/02 06:35:06;;;;;;;7.15;3.25;;;;;;;;;;4996941;28;20045;-46
2023/05/02 06:37:36;;;;;;;4.55;2.83;;;;;;;;;;4998099;28;20051;-59
2023/05/02 06:40:10;;;;;;;6.53;3.40;;;;;;;;;;4997016;28;20038;-60
2023/05/02 06:42:37;;;;;;;4.93;2.88;;;;;;;;;;4999099;28;20066;-59
2023/05/02 06:45:05;;;;;;;4.45;2.85;;;;;;;;;;4998008;28;20123;-59
2023/05/02 06:47:39;;;;;;;4.65;2.78;;;;;;;;;;4997045;28;20050;-59
2023/05/02 06:50:07;;;;;;;5.15;2.90;;;;;;;;;;5000647;28;20053;-59
2023/05/02 06:52:41;;;;;;;5.82;3.47;;;;;;;;;;4997918;28;20042;-59
2023/05/02 06:55:08;;;;;;;4.80;3.25;;;;;;;;;;5000256;28;20137;-58
2023/05/02 06:57:35;;;;;;;4.65;2.28;;;;;;;;;;4998124;28;20060;-58
2023/05/02 07:00:09;;;;;;;7.10;2.75;;;;;;;;;;4996074;28;20565;-58
2023/05/02 07:02:36;;;;;;;3.90;2.85;;;;;;;;;;4996655;28;20076;-58
2023/05/02 07:05:10;;;;;;;7.03;3.03;;;;;;;;;;4997890;28;20050;-48
2023/05/02 07:07:38;;;;;;;10.15;3.08;;;;;;;;;;4998092;28;20528;-60
2023/05/02 07:10:05;;;;;;;6.50;3.05;;;;;;;;;;4997338;28;20060;-59
2023/05/02 07:12:39;;;;;;;5.38;2.50;;;;;;;;;;4998316;28;20228;-59
2023/05/02 07:15:06;;;;;;;4.25;2.67;;;;;;;;;;4998106;28;20351;-59
2023/05/02 07:17:48;;;;;;;3.92;2.30;;;;;;;;;;4994424;28;20056;-59
2023/05/02 07:20:15;;;;;;;3.08;2.08;;;;;;;;;;4999089;28;20051;-60
2023/05/02 07:22:49;;;;;;;5.18;2.38;;;;;;;;;;5000690;28;20057;-49
2023/05/02 07:25:16;;;;;;;4.88;2.42;;;;;;;;;;5001373;28;20045;-51
2023/05/02 07:27:43;;;;;;;4.85;2.38;;;;;;;;;;4997922;28;20046;-49
2023/05/02 07:30:17;;;;;;;6.57;2.58;;;;;;;;;;4996413;28;20129;-50
2023/05/02 07:32:44;;;;;;;2.95;2.05;;;;;;;;;;4996139;28;20053;-59
2023/05/02 07:35:18;;;;;;;2.83;1.48;;;;;;;;;;4999388;28;20490;-44
2023/05/02 07:37:52;;;;;;;2.47;1.80;;;;;;;;;;4999934;28;20140;-48
2023/05/02 07:40:19;;;;;;;5.70;2.22;;;;;;;;;;4997121;28;20398;-45
2023/05/02 07:42:46;;;;;;;2.53;1.83;;;;;;;;;;4998206;28;20553;-44
2023/05/02 07:45:20;;;;;;;3.17;2.00;;;;;;;;;;4996523;28;20133;-46
2023/05/02 07:47:47;;;;;;;3.67;1.83;;;;;;;;;;4996756;28;20347;-45
2023/05/02 07:50:22;;;;;;;2.03;1.35;;;;;;;;;;4995319;28;20501;-60
2023/05/02 07:52:49;;;;;;;4.15;1.50;;;;;;;;;;4998710;28;20519;-60
2023/05/02 07:55:16;;;;;;;3.38;1.65;;;;;;;;;;4997588;28;20073;-60
2023/05/02 07:57:50;;;;;;;4.93;1.70;;;;;;;;;;4999339;28;20056;-60
2023/05/02 08:00:17;;;;;;;6.07;1.60;;;;;;;;;;4997105;28;20442;-60
2023/05/02 08:02:51;;;;;;;2.35;1.77;;;;;;;;;;4997686;28;20096;-48
2023/05/02 08:05:18;;;;;;;2.30;1.52;;;;;;;;;;4998195;28;20133;-59
2023/05/02 08:07:52;;;;;;;3.17;1.70;;;;;;;;;;4997335;28;20054;-59
2023/05/02 08:10:19;;;;;;;2.95;1.70;;;;;;;;;;4996804;28;20176;-57
2023/05/02 08:12:46;;;;;;;2.53;1.60;;;;;;;;;;5000218;28;20054;-58
2023/05/02 08:15:27;;;;;;;2.65;1.50;;;;;;;;;;4998204;28;20569;-56
2023/05/02 08:18:00;;;;;;;3.63;1.50;;;;;;;;;;4986232;28;20056;-58
2023/05/02 08:20:35;;;;;;;3.20;1.58;;;;;;;;;;4995166;28;20046;-61
2023/05/02 08:23:02;;;;;;;3.08;1.40;;;;;;;;;;4998304;28;20133;-57
2023/05/02 08:25:29;;;;;;;1.58;1.35;;;;;;;;;;4998913;28;20410;-57
2023/05/02 08:28:03;;;;;;;2.53;1.20;;;;;;;;;;4997999;28;20145;-57
2023/05/02 08:30:30;;;;;;;2.90;1.30;;;;;;;;;;4996904;28;20042;-53
2023/05/02 08:33:04;;;;;;;2.05;1.40;;;;;;;;;;4995425;28;20060;-55
2023/05/02 08:35:31;;;;;;;3.63;1.52;;;;;;;;;;4995245;28;20057;-53
2023/05/02 08:37:59;;;;;;;1.75;1.20;;;;;;;;;;4999393;28;20045;-60
2023/05/02 08:40:36;;;;;;;2.55;1.30;;;;;;;;;;4997266;28;20145;-59
2023/05/02 08:43:10;;;;;;;2.63;1.50;;;;;;;;;;4996771;28;20095;-59
2023/05/02 08:45:44;;;;;;;1.90;1.33;;;;;;;;;;4997973;28;20060;-59
2023/05/02 08:48:15;;;;;;;5.03;1.60;;;;;;;;;;4995374;28;20081;-59
2023/05/02 08:50:49;;;;;;;2.25;1.40;;;;;;;;;;4999003;28;20053;-59
2023/05/02 08:53:17;;;;;;;3.88;1.40;;;;;;;;;;4982980;28;20056;-59
2023/05/02 08:55:45;;;;;;;1.58;1.40;;;;;;;;;;4996623;28;20052;-57
2023/05/02 08:58:19;;;;;;;1.85;1.27;;;;;;;;;;5002892;28;20065;-52
2023/05/02 09:00:48;;;;;;;2.30;1.30;;;;;;;;;;5003723;28;20424;-62
2023/05/02 09:03:32;;;;;;;1.52;1.20;;;;;;;;;;4997640;28;20050;-64
2023/05/02 09:06:06;;;;;;;2.90;1.52;;;;;;;;;;4995462;28;20576;-64
2023/05/02 09:08:48;;;;;;;1.98;1.20;;;;;;;;;;4998190;28;20050;-64
2023/05/02 09:11:22;;;;;;;1.15;1.05;;;;;;;;;;5003855;28;20054;-63
2023/05/02 09:14:03;;;;;;;1.55;1.20;;;;;;;;;;4999889;28;21698;-61
2023/05/02 09:16:45;;;;;;;1.80;1.17;;;;;;;;;;4997891;28;20492;-61
2023/05/02 09:19:26;;;;;;;3.95;1.23;;;;;;;;;;5000917;28;20108;-61
2023/05/02 09:22:01;;;;;;;4.00;0.98;;;;;;;;;;4997385;28;20053;-61
2023/05/02 09:24:35;;;;;;;2.17;1.27;;;;;;;;;;4999726;28;20058;-61
2023/05/02 09:27:03;;;;;;;3.65;1.20;;;;;;;;;;4999008;28;20064;-60
2023/05/02 09:29:34;;;;;;;2.42;1.30;;;;;;;;;;5000970;28;20056;-60
2023/05/02 09:32:08;;;;;;;3.10;1.58;;;;;;;;;;5002604;28;20042;-60
2023/05/02 09:34:37;;;;;;;3.60;1.48;;;;;;;;;;4989410;28;20053;-60
2023/05/02 09:37:12;;;;;;;2.45;1.58;;;;;;;;;;5002100;28;20632;-61
2023/05/02 09:39:39;;;;;;;2.60;1.58;;;;;;;;;;4999165;28;20057;-61
2023/05/02 09:42:13;;;;;;;3.33;1.65;;;;;;;;;;5001717;28;20330;-61
2023/05/02 09:44:41;;;;;;;1.08;0.85;;;;;;;;;;4998694;28;20639;-60
2023/05/02 09:47:25;;;;;;;2.10;1.63;;;;;;;;;;5001623;28;20053;-61
2023/05/02 09:49:53;;;;;;;2.40;1.40;;;;;;;;;;5000286;28;20137;-61
2023/05/02 09:52:27;;;;;;;2.42;1.40;;;;;;;;;;5000685;28;20046;-55
2023/05/02 09:54:55;;;;;;;1.65;1.33;;;;;;;;;;4998154;28;20077;-57
2023/05/02 09:57:38;;;;;;;4.63;1.65;;;;;;;;;;5000773;28;20050;-53
2023/05/02 10:00:14;;;;;;;2.50;1.08;;;;;;;;;;4997397;28;20050;-48
2023/05/02 10:02:42;;;;;;;2.20;1.40;;;;;;;;;;4998657;28;20046;-51
2023/05/02 10:05:16;;;;;;;2.00;1.30;;;;;;;;;;5000466;28;20132;-50
2023/05/02 10:07:43;;;;;;;;;;;;;;;;;;4997441;28;20077;-50
2023/05/02 10:10:18;;;;;;;7.68;1.60;;;;;;;;;;4985852;28;20068;-48
2023/05/02 10:12:45;;;;;;;1.65;1.33;;;;;;;;;;5000763;28;20060;-61
2023/05/02 10:15:14;;;;;;;3.47;1.02;;;;;;;;;;4999190;28;20075;-61
2023/05/02 10:17:58;;;;;;;3.33;1.40;;;;;;;;;;4996856;28;20054;-61
2023/05/02 10:20:30;;;;;;;1.77;1.30;;;;;;;;;;4998898;28;20104;-61
2023/05/02 10:23:04;;;;;;;2.47;1.05;;;;;;;;;;4997349;28;20660;-60
2023/05/02 10:25:32;;;;;;;1.17;1.08;;;;;;;;;;4998197;28;20050;-61
2023/05/02 10:28:06;;;;;;;2.30;1.40;;;;;;;;;;4996889;28;20403;-60
2023/05/02 10:30:34;;;;;;;3.17;1.17;;;;;;;;;;4997958;28;20042;-60
2023/05/02 10:33:02;;;;;;;1.50;1.08;;;;;;;;;;4998192;28;20064;-61
2023/05/02 10:35:36;;;;;;;1.52;1.23;;;;;;;;;;4999697;28;20417;-61
2023/05/02 10:38:04;;;;;;;;;;;;;;;;;;4999792;28;20489;-59
2023/05/02 10:40:38;;;;;;;4.72;1.15;;;;;;;;;;5000431;28;19929;-48
2023/05/02 10:43:06;;;;;;;1.38;0.90;;;;;;;;;;4997461;28;20050;-51
2023/05/02 10:45:34;;;;;;;1.13;0.90;;;;;;;;;;4997642;28;20497;-50
2023/05/02 10:48:14;;;;;;;1.92;1.08;;;;;;;;;;4998963;28;20607;-49
2023/05/02 10:50:42;;;;;;;3.88;1.10;;;;;;;;;;5000238;28;20607;-59
2023/05/02 10:53:21;;;;;;;1.10;1.00;;;;;;;;;;4997724;28;20120;-59
2023/05/02 10:56:07;;;;;;;1.83;0.82;;;;;;;;;;4998710;28;20149;-59
2023/05/02 10:58:42;;;;;;;2.83;1.20;;;;;;;;;;4998687;28;20476;-59
2023/05/02 11:01:27;;;;;;;1.45;1.13;;;;;;;;;;4997676;28;20050;-58
2023/05/02 11:04:05;;;;;;;0.98;0.90;;;;;;;;;;4994967;28;20640;-58
2023/05/02 11:06:33;;;;;;;4.78;1.40;;;;;;;;;;4996831;28;20133;-59
2023/05/02 11:09:17;;;;;;;2.17;1.20;;;;;;;;;;4997685;28;20461;-61
2023/05/02 11:11:53;;;;;;;3.15;1.15;;;;;;;;;;4999470;28;20136;-61
2023/05/02 11:14:28;;;;;;;2.50;1.20;;;;;;;;;;4997654;28;20520;-61
2023/05/02 11:17:09;;;;;;;2.35;0.93;;;;;;;;;;4996797;28;20081;-61
2023/05/02 11:19:45;;;;;;;2.45;1.00;;;;;;;;;;4995255;28;20058;-60
2023/05/02 11:22:25;;;;;;;2.00;0.88;;;;;;;;;;4998868;28;20056;-59
2023/05/02 11:24:53;;;;;;;2.30;1.00;;;;;;;;;;4998486;28;20061;-59
2023/05/02 11:27:30;;;;;;;2.08;1.20;;;;;;;;;;4998499;28;20054;-59
2023/05/02 11:29:58;;;;;;;3.38;0.90;;;;;;;;;;4998068;28;20146;-59
2023/05/02 11:32:47;;;;;;;1.02;0.88;;;;;;;;;;4999600;28;20190;-59
2023/05/02 11:35:26;;;;;;;2.50;1.10;;;;;;;;;;4998524;28;20049;-59
2023/05/02 11:37:56;;;;;;;1.15;0.77;;;;;;;;;;4997680;28;20561;-56
2023/05/02 11:40:31;;;;;;;3.00;0.98;;;;;;;;;;4998031;28;20132;-54
2023/05/02 11:42:59;;;;;;;2.40;0.82;;;;;;;;;;4998055;28;20086;-59
2023/05/02 11:45:36;;;;;;;0.93;0.60;;;;;;;;;;4997109;28;20057;-52
2023/05/02 11:48:12;;;;;;;2.22;1.00;;;;;;;;;;4999740;28;20060;-46
2023/05/02 11:50:52;;;;;;;0.90;0.70;;;;;;;;;;4996410;28;20050;-45
2023/05/02 11:53:28;;;;;;;2.42;0.90;;;;;;;;;;4997075;28;20061;-47
2023/05/02 11:55:56;;;;;;;1.13;0.80;;;;;;;;;;4997897;28;20056;-48
2023/05/02 11:58:28;;;;;;;0.77;0.65;;;;;;;;;;4996881;28;20139;-49
2023/05/02 12:01:15;;;;;;;0.82;0.57;;;;;;;;;;4996624;28;20487;-45
2023/05/02 12:03:42;;;;;;;2.63;0.90;;;;;;;;;;4997602;28;20058;-45
2023/05/02 12:06:19;;;;;;;1.00;0.80;;;;;;;;;;4996163;28;20543;-48
2023/05/02 12:08:47;;;;;;;1.08;0.90;;;;;;;;;;4996212;28;20654;-47
2023/05/02 12:11:22;;;;;;;3.78;1.45;;;;;;;;;;4997048;28;20642;-46
2023/05/02 12:13:49;;;;;;;2.47;0.88;;;;;;;;;;4995630;28;20141;-49
2023/05/02 12:16:37;;;;;;;1.92;0.80;;;;;;;;;;4998904;28;20061;-58
2023/05/02 12:19:13;;;;;;;2.58;0.90;;;;;;;;;;4995438;28;20054;-58
2023/05/02 12:21:48;;;;;;;0.98;0.70;;;;;;;;;;4995088;28;20046;-57
2023/05/02 12:24:15;;;;;;;3.28;0.98;;;;;;;;;;4962609;28;20052;-58
2023/05/02 12:26:43;;;;;;;1.40;0.80;;;;;;;;;;5001107;28;20070;-56
2023/05/02 12:29:19;;;;;;;1.38;0.70;;;;;;;;;;4984504;28;20052;-57
2023/05/02 12:31:52;;;;;;;1.00;0.50;;;;;;;;;;5001999;28;20046;-56
2023/05/02 12:34:33;;;;;;;1.25;0.68;;;;;;;;;;5005560;28;20096;-46
2023/05/02 12:37:00;;;;;;;2.78;0.93;;;;;;;;;;5000813;28;20046;-48
2023/05/02 12:39:35;;;;;;;1.08;0.50;;;;;;;;;;4998361;28;20101;-52
2023/05/02 12:42:12;;;;;;;1.88;0.68;;;;;;;;;;5006249;28;20048;-51
2023/05/02 12:44:48;;;;;;;0.77;0.50;;;;;;;;;;5002466;28;20692;-59
2023/05/02 12:47:16;;;;;;;1.08;0.50;;;;;;;;;;4999838;28;20133;-55
2023/05/02 12:49:50;;;;;;;1.45;0.45;;;;;;;;;;4999684;28;20100;-58
2023/05/02 12:52:43;;;;;;;2.25;0.60;;;;;;;;;;5001029;28;20065;-57
2023/05/02 12:55:16;;;;;;;0.57;0.45;;;;;;;;;;5000211;28;20049;-56
2023/05/02 12:57:59;;;;;;;1.55;0.63;;;;;;;;;;5003129;28;20074;-58
2023/05/02 13:00:26;;;;;;;1.85;0.70;;;;;;;;;;5002297;28;20081;-58
2023/05/02 13:03:00;;;;;;;3.90;0.80;;;;;;;;;;4996586;28;20049;-60
2023/05/02 13:05:28;;;;;;;3.47;0.80;;;;;;;;;;4998029;28;20053;-60
2023/05/02 13:07:55;;;;;;;2.25;0.70;;;;;;;;;;4998942;28;20054;-60
2023/05/02 13:10:29;;;;;;;2.55;0.90;;;;;;;;;;4999329;28;20042;-60
2023/05/02 13:12:56;;;;;;;4.15;0.75;;;;;;;;;;4999630;28;20051;-59
2023/05/02 13:15:37;;;;;;;1.58;0.52;;;;;;;;;;5001021;28;20528;-59
2023/05/02 13:18:04;;;;;;;1.92;0.50;;;;;;;;;;4982377;28;20068;-60
2023/05/02 13:20:38;;;;;;;1.52;0.68;;;;;;;;;;5001500;28;20058;-59
2023/05/02 13:23:05;;;;;;;0.50;0.40;;;;;;;;;;5000782;28;20046;-59
2023/05/02 13:25:32;;;;;;;1.38;0.60;;;;;;;;;;4997642;28;20610;-59
2023/05/02 13:28:06;;;;;;;1.05;0.65;;;;;;;;;;4998394;28;20046;-59
2023/05/02 13:30:33;;;;;;;0.43;0.30;;;;;;;;;;5002598;28;20053;-51
2023/05/02 13:33:07;;;;;;;0.60;0.60;;;;;;;;;;5004398;28;20052;-47
2023/05/02 13:35:34;;;;;;;0.93;0.82;;;;;;;;;;4998756;28;20049;-47
2023/05/02 13:38:02;;;;;;;1.23;0.80;;;;;;;;;;4999958;28;20158;-52
2023/05/02 13:40:35;;;;;;;0.50;0.50;;;;;;;;;;5000199;28;20046;-60
2023/05/02 13:43:02;;;;;;;1.00;0.60;;;;;;;;;;5002650;28;20610;-49
2023/05/02 13:45:29;;;;;;;5.22;0.90;;;;;;;;;;5000485;28;20397;-59
2023/05/02 13:48:03;;;;;;;0.90;0.60;;;;;;;;;;5002693;28;20209;-59
2023/05/02 13:50:30;;;;;;;1.27;0.73;;;;;;;;;;5001307;28;20436;-60
2023/05/02 13:53:04;;;;;;;0.52;0.52;;;;;;;;;;4995869;28;20463;-60
2023/05/02 13:55:31;;;;;;;1.27;0.60;;;;;;;;;;4998595;28;20104;-60
2023/05/02 13:57:59;;;;;;;3.40;0.80;;;;;;;;;;4998739;28;20085;-59
2023/05/02 14:00:33;;;;;;;1.10;0.50;;;;;;;;;;4983751;28;20064;-60
2023/05/02 14:03:00;;;;;;;0.50;0.50;;;;;;;;;;5000445;28;20108;-59
2023/05/02 14:05:35;;;;;;;0.90;0.63;;;;;;;;;;5000223;28;20493;-60
2023/05/02 14:08:02;;;;;;;1.33;0.63;;;;;;;;;;4997593;28;20045;-60
2023/05/02 14:10:29;;;;;;;1.73;0.70;;;;;;;;;;4995172;28;20042;-60
2023/05/02 14:13:06;;;;;;;1.25;0.88;;;;;;;;;;4997379;28;20413;-61
2023/05/02 14:15:33;;;;;;;3.22;0.70;;;;;;;;;;4996626;28;20058;-62
2023/05/02 14:18:15;;;;;;;0.98;0.60;;;;;;;;;;4996916;28;20057;-61
2023/05/02 14:20:42;;;;;;;0.85;0.57;;;;;;;;;;4995328;28;20057;-62
2023/05/02 14:23:16;;;;;;;0.90;0.70;;;;;;;;;;4984907;28;20046;-62
2023/05/02 14:25:43;;;;;;;1.40;0.65;;;;;;;;;;4996607;28;20061;-62
2023/05/02 14:28:11;;;;;;;1.70;0.60;;;;;;;;;;4983449;28;20054;-52
2023/05/02 14:30:44;;;;;;;1.88;0.70;;;;;;;;;;4996744;28;20050;-62
2023/05/02 14:33:11;;;;;;;0.43;0.43;;;;;;;;;;4995654;28;20140;-62
2023/05/02 14:35:45;;;;;;;3.92;0.70;;;;;;;;;;4998346;28;20769;-62
2023/05/02 14:38:12;;;;;;;1.08;0.60;;;;;;;;;;4998138;28;20452;-61
2023/05/02 14:40:39;;;;;;;3.42;0.82;;;;;;;;;;4980607;28;20050;-62
2023/05/02 14:43:13;;;;;;;1.35;0.80;;;;;;;;;;4994272;28;20048;-62
2023/05/02 14:45:40;;;;;;;2.92;0.88;;;;;;;;;;4996639;28;20141;-62
2023/05/02 14:48:16;;;;;;;0.98;0.73;;;;;;;;;;4997518;28;20045;-61
2023/05/02 14:50:43;;;;;;;1.73;0.90;;;;;;;;;;4998856;28;20417;-61
2023/05/02 14:53:11;;;;;;;2.33;0.80;;;;;;;;;;4996743;28;20586;-61
2023/05/02 14:55:45;;;;;;;1.38;0.90;;;;;;;;;;4998827;28;20046;-60
2023/05/02 14:58:19;;;;;;;1.25;0.75;;;;;;;;;;4998865;28;20050;-61
2023/05/02 15:00:52;;;;;;;2.83;0.80;;;;;;;;;;4997493;28;20052;-52
2023/05/02 15:03:20;;;;;;;3.17;1.20;;;;;;;;;;4998930;28;20046;-49
2023/05/02 15:05:47;;;;;;;2.22;1.08;;;;;;;;;;4998138;28;20042;-49
2023/05/02 15:08:21;;;;;;;1.20;0.75;;;;;;;;;;4985018;28;20041;-50
2023/05/02 15:10:48;;;;;;;1.67;1.05;;;;;;;;;;4997765;28;20050;-50